sensor_id;sensor_type;location;lat;lon;timestamp;P1;durP1;ratioP1;P2;durP2;ratioP2
3443;SDS011;1736;52.068;6.968;2023-02-15T00:01:59;38.60;;;20.70;;
3443;SDS011;1736;52.068;6.968;2023-02-15T00:04:26;34.60;;;18.60;;
3443;SDS011;1736;52.068;6.968;2023-02-15T00:07:12;39.07;;;21.40;;
3443;SDS011;1736;52.068;6.968;2023-02-15T00:09:40;34.07;;;19.90;;
3443;SDS011;1736;52.068;6.968;2023-02-15T00:12:06;35.20;;;19.03;;
3443;SDS011;1736;52.068;6.968;2023-02-15T00:14:33;34.20;;;18.93;;
3443;SDS011;1736;52.068;6.968;2023-02-15T00:16:59;37.13;;;18.60;;
3443;SDS011;1736;52.068;6.968;2023-02-15T00:19:26;37.63;;;19.50;;
3443;SDS011;1736;52.068;6.968;2023-02-15T00:21:52;34.90;;;18.23;;
3443;SDS011;1736;52.068;6.968;2023-02-15T00:24:20;34.80;;;20.47;;
3443;SDS011;1736;52.068;6.968;2023-02-15T00:26:47;36.40;;;18.60;;
3443;SDS011;1736;52.068;6.968;2023-02-15T00:29:14;36.60;;;19.77;;
3443;SDS011;1736;52.068;6.968;2023-02-15T00:31:42;36.40;;;19.07;;
3443;SDS011;1736;52.068;6.968;2023-02-15T00:34:10;31.70;;;18.03;;
3443;SDS011;1736;52.068;6.968;2023-02-15T00:36:38;33.90;;;19.07;;
3443;SDS011;1736;52.068;6.968;2023-02-15T00:39:05;40.77;;;20.73;;
3443;SDS011;1736;52.068;6.968;2023-02-15T00:41:33;33.30;;;19.20;;
3443;SDS011;1736;52.068;6.968;2023-02-15T00:44:00;34.20;;;18.73;;
3443;SDS011;1736;52.068;6.968;2023-02-15T00:46:26;39.00;;;20.73;;
3443;SDS011;1736;52.068;6.968;2023-02-15T00:48:53;29.07;;;17.50;;
3443;SDS011;1736;52.068;6.968;2023-02-15T00:51:19;29.47;;;18.00;;
3443;SDS011;1736;52.068;6.968;2023-02-15T00:53:46;35.07;;;18.90;;
3443;SDS011;1736;52.068;6.968;2023-02-15T00:56:13;28.27;;;18.23;;
3443;SDS011;1736;52.068;6.968;2023-02-15T00:58:41;30.67;;;18.30;;
3443;SDS011;1736;52.068;6.968;2023-02-15T01:01:09;29.77;;;17.90;;
3443;SDS011;1736;52.068;6.968;2023-02-15T01:03:38;33.00;;;18.13;;
3443;SDS011;1736;52.068;6.968;2023-02-15T01:06:06;40.70;;;21.33;;
3443;SDS011;1736;52.068;6.968;2023-02-15T01:08:33;38.97;;;21.17;;
3443;SDS011;1736;52.068;6.968;2023-02-15T01:11:02;35.83;;;20.67;;
3443;SDS011;1736;52.068;6.968;2023-02-15T01:13:30;35.77;;;20.50;;
3443;SDS011;1736;52.068;6.968;2023-02-15T01:15:58;37.97;;;19.27;;
3443;SDS011;1736;52.068;6.968;2023-02-15T01:18:24;45.23;;;21.33;;
3443;SDS011;1736;52.068;6.968;2023-02-15T01:20:51;42.63;;;21.47;;
3443;SDS011;1736;52.068;6.968;2023-02-15T01:23:18;38.10;;;20.73;;
3443;SDS011;1736;52.068;6.968;2023-02-15T01:25:44;36.50;;;21.77;;
3443;SDS011;1736;52.068;6.968;2023-02-15T01:28:11;40.63;;;22.60;;
3443;SDS011;1736;52.068;6.968;2023-02-15T01:30:37;40.27;;;19.97;;
3443;SDS011;1736;52.068;6.968;2023-02-15T01:33:05;37.23;;;20.50;;
3443;SDS011;1736;52.068;6.968;2023-02-15T01:35:32;39.87;;;21.47;;
3443;SDS011;1736;52.068;6.968;2023-02-15T01:37:59;35.43;;;20.90;;
3443;SDS011;1736;52.068;6.968;2023-02-15T01:40:25;35.57;;;20.03;;
3443;SDS011;1736;52.068;6.968;2023-02-15T01:42:52;34.10;;;20.40;;
3443;SDS011;1736;52.068;6.968;2023-02-15T01:45:20;36.00;;;19.97;;
3443;SDS011;1736;52.068;6.968;2023-02-15T01:47:50;39.87;;;20.80;;
3443;SDS011;1736;52.068;6.968;2023-02-15T01:50:22;36.00;;;20.93;;
3443;SDS011;1736;52.068;6.968;2023-02-15T01:52:52;39.40;;;21.23;;
3443;SDS011;1736;52.068;6.968;2023-02-15T01:55:22;41.00;;;21.23;;
3443;SDS011;1736;52.068;6.968;2023-02-15T01:57:51;38.97;;;21.40;;
3443;SDS011;1736;52.068;6.968;2023-02-15T02:00:18;40.73;;;21.57;;
3443;SDS011;1736;52.068;6.968;2023-02-15T02:02:45;48.23;;;21.20;;
3443;SDS011;1736;52.068;6.968;2023-02-15T02:05:16;42.83;;;21.10;;
3443;SDS011;1736;52.068;6.968;2023-02-15T02:07:44;39.07;;;21.47;;
3443;SDS011;1736;52.068;6.968;2023-02-15T02:10:13;39.80;;;20.50;;
3443;SDS011;1736;52.068;6.968;2023-02-15T02:12:42;43.87;;;22.00;;
3443;SDS011;1736;52.068;6.968;2023-02-15T02:15:11;41.07;;;21.53;;
3443;SDS011;1736;52.068;6.968;2023-02-15T02:17:42;41.40;;;22.17;;
3443;SDS011;1736;52.068;6.968;2023-02-15T02:20:26;42.00;;;21.60;;
3443;SDS011;1736;52.068;6.968;2023-02-15T02:23:04;44.47;;;21.17;;
3443;SDS011;1736;52.068;6.968;2023-02-15T02:26:07;39.50;;;21.37;;
3443;SDS011;1736;52.068;6.968;2023-02-15T02:29:12;33.23;;;19.13;;
3443;SDS011;1736;52.068;6.968;2023-02-15T02:32:11;40.87;;;20.80;;
3443;SDS011;1736;52.068;6.968;2023-02-15T02:34:56;44.37;;;20.40;;
3443;SDS011;1736;52.068;6.968;2023-02-15T02:37:30;38.90;;;21.10;;
3443;SDS011;1736;52.068;6.968;2023-02-15T02:40:03;48.90;;;21.53;;
3443;SDS011;1736;52.068;6.968;2023-02-15T02:42:39;40.03;;;22.27;;
3443;SDS011;1736;52.068;6.968;2023-02-15T02:45:08;40.43;;;20.30;;
3443;SDS011;1736;52.068;6.968;2023-02-15T02:47:38;40.07;;;20.20;;
3443;SDS011;1736;52.068;6.968;2023-02-15T02:50:12;33.20;;;20.37;;
3443;SDS011;1736;52.068;6.968;2023-02-15T02:52:41;33.70;;;19.37;;
3443;SDS011;1736;52.068;6.968;2023-02-15T02:55:11;33.10;;;19.40;;
3443;SDS011;1736;52.068;6.968;2023-02-15T02:57:45;35.77;;;18.87;;
3443;SDS011;1736;52.068;6.968;2023-02-15T03:00:18;37.03;;;19.83;;
3443;SDS011;1736;52.068;6.968;2023-02-15T03:02:47;35.60;;;20.10;;
3443;SDS011;1736;52.068;6.968;2023-02-15T03:05:21;37.50;;;20.27;;
3443;SDS011;1736;52.068;6.968;2023-02-15T03:07:51;36.73;;;19.83;;
3443;SDS011;1736;52.068;6.968;2023-02-15T03:10:20;38.93;;;20.47;;
3443;SDS011;1736;52.068;6.968;2023-02-15T03:12:50;38.50;;;19.73;;
3443;SDS011;1736;52.068;6.968;2023-02-15T03:15:18;42.47;;;20.33;;
3443;SDS011;1736;52.068;6.968;2023-02-15T03:17:47;39.83;;;20.60;;
3443;SDS011;1736;52.068;6.968;2023-02-15T03:20:18;38.23;;;21.13;;
3443;SDS011;1736;52.068;6.968;2023-02-15T03:22:51;40.03;;;21.50;;
3443;SDS011;1736;52.068;6.968;2023-02-15T03:25:21;33.97;;;19.13;;
3443;SDS011;1736;52.068;6.968;2023-02-15T03:27:52;33.73;;;19.47;;
3443;SDS011;1736;52.068;6.968;2023-02-15T03:30:21;43.03;;;20.10;;
3443;SDS011;1736;52.068;6.968;2023-02-15T03:32:49;38.57;;;20.40;;
3443;SDS011;1736;52.068;6.968;2023-02-15T03:35:17;33.63;;;19.50;;
3443;SDS011;1736;52.068;6.968;2023-02-15T03:37:50;35.10;;;19.17;;
3443;SDS011;1736;52.068;6.968;2023-02-15T03:40:23;38.03;;;20.10;;
3443;SDS011;1736;52.068;6.968;2023-02-15T03:43:12;30.97;;;18.03;;
3443;SDS011;1736;52.068;6.968;2023-02-15T03:45:45;35.37;;;19.10;;
3443;SDS011;1736;52.068;6.968;2023-02-15T03:48:21;32.27;;;17.40;;
3443;SDS011;1736;52.068;6.968;2023-02-15T03:50:50;39.43;;;18.43;;
3443;SDS011;1736;52.068;6.968;2023-02-15T03:53:38;34.20;;;18.50;;
3443;SDS011;1736;52.068;6.968;2023-02-15T03:56:06;29.93;;;17.83;;
3443;SDS011;1736;52.068;6.968;2023-02-15T03:58:32;38.93;;;18.87;;
3443;SDS011;1736;52.068;6.968;2023-02-15T04:01:18;39.40;;;20.20;;
3443;SDS011;1736;52.068;6.968;2023-02-15T04:04:24;33.67;;;19.43;;
3443;SDS011;1736;52.068;6.968;2023-02-15T04:06:54;33.73;;;18.80;;
3443;SDS011;1736;52.068;6.968;2023-02-15T04:09:22;33.33;;;18.07;;
3443;SDS011;1736;52.068;6.968;2023-02-15T04:12:06;34.87;;;19.50;;
3443;SDS011;1736;52.068;6.968;2023-02-15T04:14:33;35.70;;;19.57;;
3443;SDS011;1736;52.068;6.968;2023-02-15T04:17:17;37.50;;;19.80;;
3443;SDS011;1736;52.068;6.968;2023-02-15T04:19:44;35.70;;;18.70;;
3443;SDS011;1736;52.068;6.968;2023-02-15T04:22:28;34.93;;;18.73;;
3443;SDS011;1736;52.068;6.968;2023-02-15T04:25:13;33.90;;;20.27;;
3443;SDS011;1736;52.068;6.968;2023-02-15T04:27:40;35.60;;;19.10;;
3443;SDS011;1736;52.068;6.968;2023-02-15T04:30:08;35.50;;;18.80;;
3443;SDS011;1736;52.068;6.968;2023-02-15T04:32:36;35.60;;;20.00;;
3443;SDS011;1736;52.068;6.968;2023-02-15T04:35:04;36.10;;;19.93;;
3443;SDS011;1736;52.068;6.968;2023-02-15T04:37:31;36.37;;;19.10;;
3443;SDS011;1736;52.068;6.968;2023-02-15T04:39:58;36.97;;;18.87;;
3443;SDS011;1736;52.068;6.968;2023-02-15T04:42:26;36.40;;;19.20;;
3443;SDS011;1736;52.068;6.968;2023-02-15T04:44:53;34.77;;;18.60;;
3443;SDS011;1736;52.068;6.968;2023-02-15T04:47:20;33.43;;;18.30;;
3443;SDS011;1736;52.068;6.968;2023-02-15T04:49:47;32.67;;;18.30;;
3443;SDS011;1736;52.068;6.968;2023-02-15T04:52:13;38.13;;;19.80;;
3443;SDS011;1736;52.068;6.968;2023-02-15T04:54:42;39.10;;;19.47;;
3443;SDS011;1736;52.068;6.968;2023-02-15T04:57:08;37.83;;;19.30;;
3443;SDS011;1736;52.068;6.968;2023-02-15T04:59:36;37.97;;;19.73;;
3443;SDS011;1736;52.068;6.968;2023-02-15T05:02:03;34.23;;;19.53;;
3443;SDS011;1736;52.068;6.968;2023-02-15T05:04:29;39.33;;;20.10;;
3443;SDS011;1736;52.068;6.968;2023-02-15T05:06:56;32.67;;;19.43;;
3443;SDS011;1736;52.068;6.968;2023-02-15T05:09:22;40.10;;;20.23;;
3443;SDS011;1736;52.068;6.968;2023-02-15T05:11:49;37.83;;;19.57;;
3443;SDS011;1736;52.068;6.968;2023-02-15T05:14:15;37.37;;;19.23;;
3443;SDS011;1736;52.068;6.968;2023-02-15T05:16:43;35.17;;;18.70;;
3443;SDS011;1736;52.068;6.968;2023-02-15T05:19:10;40.60;;;21.17;;
3443;SDS011;1736;52.068;6.968;2023-02-15T05:21:36;40.33;;;19.23;;
3443;SDS011;1736;52.068;6.968;2023-02-15T05:24:03;42.43;;;21.20;;
3443;SDS011;1736;52.068;6.968;2023-02-15T05:26:50;37.50;;;19.73;;
3443;SDS011;1736;52.068;6.968;2023-02-15T05:29:34;34.70;;;19.43;;
3443;SDS011;1736;52.068;6.968;2023-02-15T05:32:02;39.33;;;20.97;;
3443;SDS011;1736;52.068;6.968;2023-02-15T05:34:29;39.63;;;21.63;;
3443;SDS011;1736;52.068;6.968;2023-02-15T05:36:55;40.03;;;21.70;;
3443;SDS011;1736;52.068;6.968;2023-02-15T05:39:22;42.50;;;21.60;;
3443;SDS011;1736;52.068;6.968;2023-02-15T05:41:48;41.27;;;21.80;;
3443;SDS011;1736;52.068;6.968;2023-02-15T05:44:15;39.20;;;21.33;;
3443;SDS011;1736;52.068;6.968;2023-02-15T05:46:41;43.07;;;20.87;;
3443;SDS011;1736;52.068;6.968;2023-02-15T05:49:09;43.60;;;22.97;;
3443;SDS011;1736;52.068;6.968;2023-02-15T05:51:35;44.10;;;22.27;;
3443;SDS011;1736;52.068;6.968;2023-02-15T05:54:02;36.50;;;21.17;;
3443;SDS011;1736;52.068;6.968;2023-02-15T05:56:28;42.40;;;23.57;;
3443;SDS011;1736;52.068;6.968;2023-02-15T05:58:55;39.33;;;22.40;;
3443;SDS011;1736;52.068;6.968;2023-02-15T06:01:21;50.80;;;22.50;;
3443;SDS011;1736;52.068;6.968;2023-02-15T06:03:48;40.97;;;22.80;;
3443;SDS011;1736;52.068;6.968;2023-02-15T06:06:16;40.63;;;23.67;;
3443;SDS011;1736;52.068;6.968;2023-02-15T06:08:42;42.10;;;23.00;;
3443;SDS011;1736;52.068;6.968;2023-02-15T06:11:09;43.50;;;22.77;;
3443;SDS011;1736;52.068;6.968;2023-02-15T06:13:36;37.70;;;20.90;;
3443;SDS011;1736;52.068;6.968;2023-02-15T06:16:02;38.13;;;21.13;;
3443;SDS011;1736;52.068;6.968;2023-02-15T06:18:29;41.20;;;22.27;;
3443;SDS011;1736;52.068;6.968;2023-02-15T06:20:56;38.27;;;22.00;;
3443;SDS011;1736;52.068;6.968;2023-02-15T06:23:24;37.17;;;20.20;;
3443;SDS011;1736;52.068;6.968;2023-02-15T06:25:50;35.63;;;20.23;;
3443;SDS011;1736;52.068;6.968;2023-02-15T06:28:17;42.83;;;21.93;;
3443;SDS011;1736;52.068;6.968;2023-02-15T06:30:43;36.57;;;20.90;;
3443;SDS011;1736;52.068;6.968;2023-02-15T06:33:10;38.27;;;21.07;;
3443;SDS011;1736;52.068;6.968;2023-02-15T06:35:36;37.93;;;18.77;;
3443;SDS011;1736;52.068;6.968;2023-02-15T06:38:03;34.00;;;20.07;;
3443;SDS011;1736;52.068;6.968;2023-02-15T06:40:31;39.30;;;21.40;;
3443;SDS011;1736;52.068;6.968;2023-02-15T06:42:57;44.17;;;21.83;;
3443;SDS011;1736;52.068;6.968;2023-02-15T06:45:24;36.63;;;19.93;;
3443;SDS011;1736;52.068;6.968;2023-02-15T06:47:50;40.47;;;19.87;;
3443;SDS011;1736;52.068;6.968;2023-02-15T06:50:17;36.90;;;18.90;;
3443;SDS011;1736;52.068;6.968;2023-02-15T06:52:43;45.07;;;22.20;;
3443;SDS011;1736;52.068;6.968;2023-02-15T06:55:10;41.20;;;21.30;;
3443;SDS011;1736;52.068;6.968;2023-02-15T06:57:37;36.80;;;21.23;;
3443;SDS011;1736;52.068;6.968;2023-02-15T07:00:04;43.20;;;22.20;;
3443;SDS011;1736;52.068;6.968;2023-02-15T07:02:33;38.77;;;20.83;;
3443;SDS011;1736;52.068;6.968;2023-02-15T07:04:59;41.87;;;21.50;;
3443;SDS011;1736;52.068;6.968;2023-02-15T07:07:26;42.97;;;22.13;;
3443;SDS011;1736;52.068;6.968;2023-02-15T07:09:52;38.30;;;20.87;;
3443;SDS011;1736;52.068;6.968;2023-02-15T07:12:19;41.80;;;21.57;;
3443;SDS011;1736;52.068;6.968;2023-02-15T07:15:04;42.60;;;21.37;;
3443;SDS011;1736;52.068;6.968;2023-02-15T07:17:33;40.03;;;20.40;;
3443;SDS011;1736;52.068;6.968;2023-02-15T07:20:00;36.70;;;20.23;;
3443;SDS011;1736;52.068;6.968;2023-02-15T07:22:27;33.97;;;19.80;;
3443;SDS011;1736;52.068;6.968;2023-02-15T07:24:53;35.27;;;20.00;;
3443;SDS011;1736;52.068;6.968;2023-02-15T07:27:20;40.53;;;20.70;;
3443;SDS011;1736;52.068;6.968;2023-02-15T07:29:46;37.77;;;20.90;;
3443;SDS011;1736;52.068;6.968;2023-02-15T07:32:14;40.97;;;22.23;;
3443;SDS011;1736;52.068;6.968;2023-02-15T07:34:41;39.40;;;21.80;;
3443;SDS011;1736;52.068;6.968;2023-02-15T07:37:07;43.03;;;21.60;;
3443;SDS011;1736;52.068;6.968;2023-02-15T07:39:34;38.83;;;21.70;;
3443;SDS011;1736;52.068;6.968;2023-02-15T07:42:00;36.47;;;21.47;;
3443;SDS011;1736;52.068;6.968;2023-02-15T07:44:27;41.30;;;22.23;;
3443;SDS011;1736;52.068;6.968;2023-02-15T07:46:53;46.73;;;24.20;;
3443;SDS011;1736;52.068;6.968;2023-02-15T07:49:21;48.60;;;23.17;;
3443;SDS011;1736;52.068;6.968;2023-02-15T07:51:48;42.77;;;23.30;;
3443;SDS011;1736;52.068;6.968;2023-02-15T07:54:14;41.83;;;22.00;;
3443;SDS011;1736;52.068;6.968;2023-02-15T07:56:41;42.13;;;23.20;;
3443;SDS011;1736;52.068;6.968;2023-02-15T07:59:08;47.07;;;24.53;;
3443;SDS011;1736;52.068;6.968;2023-02-15T08:01:35;45.27;;;25.13;;
3443;SDS011;1736;52.068;6.968;2023-02-15T08:04:03;45.70;;;23.83;;
3443;SDS011;1736;52.068;6.968;2023-02-15T08:06:33;54.40;;;26.13;;
3443;SDS011;1736;52.068;6.968;2023-02-15T08:09:02;61.70;;;30.10;;
3443;SDS011;1736;52.068;6.968;2023-02-15T08:11:31;60.73;;;30.33;;
3443;SDS011;1736;52.068;6.968;2023-02-15T08:14:02;53.37;;;29.83;;
3443;SDS011;1736;52.068;6.968;2023-02-15T08:16:31;60.37;;;29.70;;
3443;SDS011;1736;52.068;6.968;2023-02-15T08:19:00;52.33;;;28.13;;
3443;SDS011;1736;52.068;6.968;2023-02-15T08:21:28;55.97;;;28.70;;
3443;SDS011;1736;52.068;6.968;2023-02-15T08:23:57;56.33;;;29.07;;
3443;SDS011;1736;52.068;6.968;2023-02-15T08:26:24;52.77;;;28.37;;
3443;SDS011;1736;52.068;6.968;2023-02-15T08:28:52;53.83;;;28.60;;
3443;SDS011;1736;52.068;6.968;2023-02-15T08:31:19;53.83;;;25.90;;
3443;SDS011;1736;52.068;6.968;2023-02-15T08:33:47;55.17;;;27.53;;
3443;SDS011;1736;52.068;6.968;2023-02-15T08:36:15;50.87;;;27.07;;
3443;SDS011;1736;52.068;6.968;2023-02-15T08:38:43;53.40;;;26.20;;
3443;SDS011;1736;52.068;6.968;2023-02-15T08:41:12;56.53;;;26.13;;
3443;SDS011;1736;52.068;6.968;2023-02-15T08:43:40;54.23;;;25.80;;
3443;SDS011;1736;52.068;6.968;2023-02-15T08:46:08;49.10;;;25.07;;
3443;SDS011;1736;52.068;6.968;2023-02-15T08:48:36;49.03;;;24.00;;
3443;SDS011;1736;52.068;6.968;2023-02-15T08:51:07;49.50;;;23.87;;
3443;SDS011;1736;52.068;6.968;2023-02-15T08:53:35;44.93;;;23.93;;
3443;SDS011;1736;52.068;6.968;2023-02-15T08:56:02;41.50;;;21.47;;
3443;SDS011;1736;52.068;6.968;2023-02-15T08:58:30;48.07;;;24.03;;
3443;SDS011;1736;52.068;6.968;2023-02-15T09:00:58;42.93;;;23.33;;
3443;SDS011;1736;52.068;6.968;2023-02-15T09:03:27;43.73;;;22.47;;
3443;SDS011;1736;52.068;6.968;2023-02-15T09:05:56;36.77;;;20.70;;
3443;SDS011;1736;52.068;6.968;2023-02-15T09:08:24;41.77;;;20.80;;
3443;SDS011;1736;52.068;6.968;2023-02-15T09:10:51;39.60;;;21.10;;
3443;SDS011;1736;52.068;6.968;2023-02-15T09:13:17;38.97;;;21.10;;
3443;SDS011;1736;52.068;6.968;2023-02-15T09:15:46;41.73;;;20.57;;
3443;SDS011;1736;52.068;6.968;2023-02-15T09:18:13;36.53;;;20.37;;
3443;SDS011;1736;52.068;6.968;2023-02-15T09:20:42;37.90;;;20.70;;
3443;SDS011;1736;52.068;6.968;2023-02-15T09:23:09;39.10;;;22.33;;
3443;SDS011;1736;52.068;6.968;2023-02-15T09:25:35;37.00;;;20.80;;
3443;SDS011;1736;52.068;6.968;2023-02-15T09:28:02;43.70;;;20.63;;
3443;SDS011;1736;52.068;6.968;2023-02-15T09:30:28;43.97;;;20.27;;
3443;SDS011;1736;52.068;6.968;2023-02-15T09:32:56;34.90;;;20.40;;
3443;SDS011;1736;52.068;6.968;2023-02-15T09:35:23;36.43;;;19.40;;
3443;SDS011;1736;52.068;6.968;2023-02-15T09:37:49;38.70;;;20.63;;
3443;SDS011;1736;52.068;6.968;2023-02-15T09:40:15;37.50;;;19.77;;
3443;SDS011;1736;52.068;6.968;2023-02-15T09:42:47;38.47;;;20.10;;
3443;SDS011;1736;52.068;6.968;2023-02-15T09:45:28;37.63;;;20.07;;
3443;SDS011;1736;52.068;6.968;2023-02-15T09:51:26;36.77;;;19.80;;
3443;SDS011;1736;52.068;6.968;2023-02-15T09:54:05;40.53;;;20.40;;
3443;SDS011;1736;52.068;6.968;2023-02-15T09:56:38;36.27;;;19.70;;
3443;SDS011;1736;52.068;6.968;2023-02-15T09:59:10;41.03;;;20.20;;
3443;SDS011;1736;52.068;6.968;2023-02-15T10:01:42;35.27;;;18.93;;
3443;SDS011;1736;52.068;6.968;2023-02-15T10:04:19;36.60;;;19.10;;
3443;SDS011;1736;52.068;6.968;2023-02-15T10:07:04;33.37;;;18.43;;
3443;SDS011;1736;52.068;6.968;2023-02-15T10:09:45;37.00;;;19.43;;
3443;SDS011;1736;52.068;6.968;2023-02-15T10:18:17;34.77;;;20.47;;
3443;SDS011;1736;52.068;6.968;2023-02-15T10:20:56;34.20;;;18.73;;
3443;SDS011;1736;52.068;6.968;2023-02-15T10:23:36;38.73;;;21.27;;
3443;SDS011;1736;52.068;6.968;2023-02-15T10:26:16;35.87;;;20.27;;
3443;SDS011;1736;52.068;6.968;2023-02-15T10:28:45;32.30;;;18.90;;
3443;SDS011;1736;52.068;6.968;2023-02-15T10:31:17;33.53;;;18.70;;
3443;SDS011;1736;52.068;6.968;2023-02-15T10:33:51;34.00;;;19.77;;
3443;SDS011;1736;52.068;6.968;2023-02-15T10:36:35;38.00;;;19.67;;
3443;SDS011;1736;52.068;6.968;2023-02-15T10:39:16;30.90;;;17.03;;
3443;SDS011;1736;52.068;6.968;2023-02-15T10:41:52;32.60;;;18.60;;
3443;SDS011;1736;52.068;6.968;2023-02-15T10:44:29;33.93;;;18.60;;
3443;SDS011;1736;52.068;6.968;2023-02-15T10:47:10;35.77;;;18.67;;
3443;SDS011;1736;52.068;6.968;2023-02-15T10:49:57;35.83;;;19.00;;
3443;SDS011;1736;52.068;6.968;2023-02-15T10:52:38;34.00;;;17.60;;
3443;SDS011;1736;52.068;6.968;2023-02-15T10:55:21;40.67;;;18.60;;
3443;SDS011;1736;52.068;6.968;2023-02-15T10:57:58;38.97;;;20.40;;
3443;SDS011;1736;52.068;6.968;2023-02-15T11:00:33;37.07;;;18.80;;
3443;SDS011;1736;52.068;6.968;2023-02-15T11:03:23;31.93;;;18.10;;
3443;SDS011;1736;52.068;6.968;2023-02-15T11:06:03;31.43;;;17.93;;
3443;SDS011;1736;52.068;6.968;2023-02-15T11:08:35;31.37;;;18.10;;
3443;SDS011;1736;52.068;6.968;2023-02-15T11:11:07;36.30;;;17.67;;
3443;SDS011;1736;52.068;6.968;2023-02-15T11:13:37;38.27;;;18.73;;
3443;SDS011;1736;52.068;6.968;2023-02-15T11:16:06;30.43;;;17.57;;
3443;SDS011;1736;52.068;6.968;2023-02-15T11:18:40;35.57;;;18.73;;
3443;SDS011;1736;52.068;6.968;2023-02-15T11:21:09;35.10;;;18.73;;
3443;SDS011;1736;52.068;6.968;2023-02-15T11:23:43;32.53;;;18.10;;
3443;SDS011;1736;52.068;6.968;2023-02-15T11:26:14;33.70;;;17.27;;
3443;SDS011;1736;52.068;6.968;2023-02-15T11:28:47;29.70;;;17.70;;
3443;SDS011;1736;52.068;6.968;2023-02-15T11:31:19;34.37;;;17.07;;
3443;SDS011;1736;52.068;6.968;2023-02-15T11:33:48;35.10;;;17.50;;
3443;SDS011;1736;52.068;6.968;2023-02-15T11:36:19;33.37;;;17.50;;
3443;SDS011;1736;52.068;6.968;2023-02-15T11:38:51;32.03;;;17.17;;
3443;SDS011;1736;52.068;6.968;2023-02-15T11:41:24;30.57;;;17.17;;
3443;SDS011;1736;52.068;6.968;2023-02-15T11:43:56;34.23;;;16.30;;
3443;SDS011;1736;52.068;6.968;2023-02-15T11:46:26;31.80;;;18.00;;
3443;SDS011;1736;52.068;6.968;2023-02-15T11:48:53;32.63;;;17.17;;
3443;SDS011;1736;52.068;6.968;2023-02-15T11:51:20;25.73;;;15.40;;
3443;SDS011;1736;52.068;6.968;2023-02-15T11:53:49;31.00;;;16.73;;
3443;SDS011;1736;52.068;6.968;2023-02-15T11:56:17;30.20;;;17.47;;
3443;SDS011;1736;52.068;6.968;2023-02-15T11:58:47;35.20;;;15.40;;
3443;SDS011;1736;52.068;6.968;2023-02-15T12:01:18;27.77;;;16.17;;
3443;SDS011;1736;52.068;6.968;2023-02-15T12:03:49;33.23;;;16.30;;
3443;SDS011;1736;52.068;6.968;2023-02-15T12:06:20;30.30;;;16.13;;
3443;SDS011;1736;52.068;6.968;2023-02-15T12:08:52;28.60;;;15.77;;
3443;SDS011;1736;52.068;6.968;2023-02-15T12:11:25;32.30;;;16.10;;
3443;SDS011;1736;52.068;6.968;2023-02-15T12:14:00;32.90;;;17.30;;
3443;SDS011;1736;52.068;6.968;2023-02-15T12:16:29;38.40;;;17.20;;
3443;SDS011;1736;52.068;6.968;2023-02-15T12:19:01;29.70;;;15.40;;
3443;SDS011;1736;52.068;6.968;2023-02-15T12:21:29;33.10;;;17.00;;
3443;SDS011;1736;52.068;6.968;2023-02-15T12:23:58;35.03;;;17.10;;
3443;SDS011;1736;52.068;6.968;2023-02-15T12:26:30;32.07;;;16.60;;
3443;SDS011;1736;52.068;6.968;2023-02-15T12:28:59;29.63;;;16.80;;
3443;SDS011;1736;52.068;6.968;2023-02-15T12:31:32;30.40;;;16.30;;
3443;SDS011;1736;52.068;6.968;2023-02-15T12:34:03;30.33;;;16.17;;
3443;SDS011;1736;52.068;6.968;2023-02-15T12:36:42;28.13;;;16.20;;
3443;SDS011;1736;52.068;6.968;2023-02-15T12:39:18;30.47;;;15.63;;
3443;SDS011;1736;52.068;6.968;2023-02-15T12:41:57;29.80;;;16.20;;
3443;SDS011;1736;52.068;6.968;2023-02-15T12:44:27;28.57;;;15.70;;
3443;SDS011;1736;52.068;6.968;2023-02-15T12:46:56;28.63;;;15.90;;
3443;SDS011;1736;52.068;6.968;2023-02-15T12:49:24;29.03;;;16.87;;
3443;SDS011;1736;52.068;6.968;2023-02-15T12:51:53;27.17;;;16.13;;
3443;SDS011;1736;52.068;6.968;2023-02-15T12:54:37;31.10;;;15.70;;
3443;SDS011;1736;52.068;6.968;2023-02-15T12:59:54;27.60;;;15.00;;
3443;SDS011;1736;52.068;6.968;2023-02-15T13:02:29;33.83;;;15.63;;
3443;SDS011;1736;52.068;6.968;2023-02-15T13:05:04;29.60;;;15.03;;
3443;SDS011;1736;52.068;6.968;2023-02-15T13:07:44;31.10;;;15.40;;
3443;SDS011;1736;52.068;6.968;2023-02-15T13:10:21;28.10;;;15.43;;
3443;SDS011;1736;52.068;6.968;2023-02-15T13:12:51;29.03;;;14.90;;
3443;SDS011;1736;52.068;6.968;2023-02-15T13:15:30;29.93;;;14.30;;
3443;SDS011;1736;52.068;6.968;2023-02-15T13:18:00;30.70;;;15.77;;
3443;SDS011;1736;52.068;6.968;2023-02-15T13:20:29;31.70;;;15.23;;
3443;SDS011;1736;52.068;6.968;2023-02-15T13:22:58;29.80;;;15.17;;
3443;SDS011;1736;52.068;6.968;2023-02-15T13:25:29;31.10;;;16.00;;
3443;SDS011;1736;52.068;6.968;2023-02-15T13:28:01;33.60;;;16.10;;
3443;SDS011;1736;52.068;6.968;2023-02-15T13:30:31;27.70;;;14.00;;
3443;SDS011;1736;52.068;6.968;2023-02-15T13:33:02;27.20;;;14.53;;
3443;SDS011;1736;52.068;6.968;2023-02-15T13:35:34;25.43;;;12.77;;
3443;SDS011;1736;52.068;6.968;2023-02-15T13:38:19;29.77;;;14.20;;
3443;SDS011;1736;52.068;6.968;2023-02-15T13:40:59;27.70;;;14.43;;
3443;SDS011;1736;52.068;6.968;2023-02-15T13:43:35;31.60;;;14.80;;
3443;SDS011;1736;52.068;6.968;2023-02-15T13:46:17;27.50;;;14.10;;
3443;SDS011;1736;52.068;6.968;2023-02-15T13:48:52;24.30;;;12.87;;
3443;SDS011;1736;52.068;6.968;2023-02-15T13:51:33;26.03;;;14.23;;
3443;SDS011;1736;52.068;6.968;2023-02-15T13:54:23;27.90;;;15.17;;
3443;SDS011;1736;52.068;6.968;2023-02-15T13:57:02;25.70;;;14.20;;
3443;SDS011;1736;52.068;6.968;2023-02-15T13:59:46;29.00;;;15.27;;
3443;SDS011;1736;52.068;6.968;2023-02-15T14:02:34;25.30;;;14.27;;
3443;SDS011;1736;52.068;6.968;2023-02-15T14:05:22;24.47;;;13.40;;
3443;SDS011;1736;52.068;6.968;2023-02-15T14:08:00;26.80;;;14.73;;
3443;SDS011;1736;52.068;6.968;2023-02-15T14:10:38;28.00;;;13.77;;
3443;SDS011;1736;52.068;6.968;2023-02-15T14:13:25;26.10;;;13.87;;
3443;SDS011;1736;52.068;6.968;2023-02-15T14:16:06;29.97;;;14.70;;
3443;SDS011;1736;52.068;6.968;2023-02-15T14:18:41;27.83;;;14.43;;
3443;SDS011;1736;52.068;6.968;2023-02-15T14:21:13;23.97;;;13.67;;
3443;SDS011;1736;52.068;6.968;2023-02-15T14:23:46;33.20;;;15.17;;
3443;SDS011;1736;52.068;6.968;2023-02-15T14:26:21;24.97;;;13.73;;
3443;SDS011;1736;52.068;6.968;2023-02-15T14:29:01;25.77;;;13.83;;
3443;SDS011;1736;52.068;6.968;2023-02-15T14:31:39;25.93;;;13.10;;
3443;SDS011;1736;52.068;6.968;2023-02-15T14:34:15;26.17;;;14.53;;
3443;SDS011;1736;52.068;6.968;2023-02-15T14:36:45;25.97;;;12.90;;
3443;SDS011;1736;52.068;6.968;2023-02-15T14:39:15;24.87;;;12.60;;
3443;SDS011;1736;52.068;6.968;2023-02-15T14:42:10;25.23;;;13.33;;
3443;SDS011;1736;52.068;6.968;2023-02-15T14:44:45;25.73;;;13.30;;
3443;SDS011;1736;52.068;6.968;2023-02-15T14:47:18;25.70;;;13.43;;
3443;SDS011;1736;52.068;6.968;2023-02-15T14:49:50;30.60;;;13.10;;
3443;SDS011;1736;52.068;6.968;2023-02-15T14:52:17;27.43;;;13.37;;
3443;SDS011;1736;52.068;6.968;2023-02-15T14:54:52;26.37;;;13.77;;
3443;SDS011;1736;52.068;6.968;2023-02-15T14:57:22;26.07;;;14.00;;
3443;SDS011;1736;52.068;6.968;2023-02-15T14:59:53;26.60;;;13.67;;
3443;SDS011;1736;52.068;6.968;2023-02-15T15:02:23;30.10;;;15.50;;
3443;SDS011;1736;52.068;6.968;2023-02-15T15:04:56;29.97;;;14.73;;
3443;SDS011;1736;52.068;6.968;2023-02-15T15:07:27;27.40;;;14.73;;
3443;SDS011;1736;52.068;6.968;2023-02-15T15:10:02;27.90;;;14.90;;
3443;SDS011;1736;52.068;6.968;2023-02-15T15:12:40;24.70;;;13.97;;
3443;SDS011;1736;52.068;6.968;2023-02-15T15:15:11;27.20;;;13.93;;
3443;SDS011;1736;52.068;6.968;2023-02-15T15:20:41;26.07;;;13.93;;
3443;SDS011;1736;52.068;6.968;2023-02-15T15:26:22;28.10;;;14.73;;
3443;SDS011;1736;52.068;6.968;2023-02-15T15:28:55;27.97;;;14.67;;
3443;SDS011;1736;52.068;6.968;2023-02-15T15:31:24;27.40;;;15.07;;